AirNav   TITAN Aviation Fuels
 
 1006 users online  

5CL8 Creekside Airport
Arvin, California, USA

GOING TO ARVIN?


FAA INFORMATION EFFECTIVE 01 DECEMBER 2022

Location

FAA Identifier: 5CL8
Lat/Long: 35-10-34.1000N 118-55-23.3360W
35-10.568333N 118-55.388933W
35.1761389,-118.9231489
(estimated)
Elevation: 335 ft. / 102 m (estimated)
Variation: 14E (1990)
From city: 5 miles SW of ARVIN, CA
Time zone: UTC -8 (UTC -7 during Daylight Saving Time)
Zip code: 93203

Airport Operations

Airport use: Private use. Permission required prior to landing
Activation date: 10/1994
Control tower: no
ARTCC: LOS ANGELES CENTER
FSS: RANCHO MURIETA FLIGHT SERVICE STATION
Attendance: UNATNDD
Wind indicator: yes
Segmented circle: yes

Airport Communications

WX ASOS at BFL (17 nm NW): PHONE 661-393-3766

Nearby radio navigation aids

VOR radial/distance  VOR name  Freq  Var
EHFr141/20.4SHAFTER VORTAC115.4014E
GMNr336/22.5GORMAN VORTAC116.1016E
LHSr315/34.1LAKE HUGHES VORTAC114.3515E

Airport Services

Runway Information

Runway 16/34

Dimensions: 2000 x 100 ft. / 610 x 30 m
Surface: asphalt/turf
RUNWAY 16  RUNWAY 34
Traffic pattern: leftleft

Airport Ownership and Management from official FAA records

Ownership: Privately-owned
Owner: JAMES F WEBBER
4581 N WHEELER RIDGE RD
ARVIN, CA 93203
Phone 661-333-3776
Manager: JAMES F WEBBER
4581 N WHEELER RIDGE RD
ARVIN, CA 93203
Phone 661-333-3776

Airport Operational Statistics

Aircraft based on the field: 4
Single engine airplanes: 2
Ultralights: 2
    
Aircraft operations: 65/year
92% local general aviation
8% transient general aviation

Additional Remarks

OWNER DESIRES ARPT NOT BE CHARTED.
FOR CD CTC LOS ANGELES ARTCC AT 661-575-2079.

Instrument Procedures

There are no published instrument procedures at 5CL8.

Some nearby airports with instrument procedures:

L45 - Bakersfield Municipal Airport (10 nm N)
KBFL - Meadows Field Airport (17 nm NW)
KMIT - Shafter Airport-Minter Field (24 nm NW)
KDLO - Delano Municipal Airport (37 nm NW)
KMHV - Mojave Air & Space Port/Rutan Field (39 nm E)
 
Loc | Ops | Rwys | IFR | FBO | Links
Com | Nav | Svcs | Stats | Notes
Area around 5CL8 (Creekside Airport)
 
Road maps at: MapQuest Bing Google
 
Aerial photo
No photo
 
Sectional chart

 
Airport distance calculator
Flying to Creekside Airport? Find the distance to fly.

From to 5CL8

Sunrise and sunset
Times for 06-Dec-2022
 Local
(UTC-8)
 Zulu
(UTC)
Morning civil twilight06:2314:23
Sunrise06:5114:51
Sunset16:4200:42
Evening civil twilight17:1001:10

Current date and time
Zulu (UTC)  07-Dec-2022 04:08:42
Local (UTC-8)  06-Dec-2022 20:08:42
 
METAR
KBFL 
17nm N 
070354Z 35009KT 10SM BKN075 OVC110 10/07 A3006 RMK AO2 SLP178 T01000067
KTSP 
24nm E 
070355Z AUTO 03003KT 10SM OVC060 01/M01 A3004 RMK AO2
KSDB 
28nm S 
070404Z AUTO 19004KT 4SM BR SCT005 BKN014 03/02 A3003 RMK AO2 T00330022
TAF
KBFL 
17nm N 
061727Z 0618/0718 VRB06KT P6SM FEW150 FM062100 30006KT P6SM SCT150 FM070200 34006KT P6SM SCT050 BKN150 TEMPO 0702/0706 -SHRA BKN050 FM070600 VRB04KT P6SM BKN050
NOTAMs
Click for the latest NOTAMs
NOTAMs are issued by the DoD/FAA and will open in a separate window not controlled by AirNav.

 

 
 

Would you like to see your business listed on this page?

 If your business provides an interesting product or service to pilots, flight crews, aircraft, or users of the Creekside Airport, you should consider listing it here.  To start the listing process, click on the button below
 
Add a business
 

Other Pages about Creekside Airport

Update a link
 
Copyright © AirNav, LLC. All rights reserved. Privacy Policy  Contact